sensor_id;sensor_type;location;lat;lon;timestamp;P1;durP1;ratioP1;P2;durP2;ratioP2
35990;SDS011;22064;42.672;23.282;2022-08-21T00:02:15;28.45;;;12.23;;
35990;SDS011;22064;42.672;23.282;2022-08-21T00:04:42;27.08;;;12.82;;
35990;SDS011;22064;42.672;23.282;2022-08-21T00:07:08;30.15;;;13.15;;
35990;SDS011;22064;42.672;23.282;2022-08-21T00:09:34;28.50;;;13.38;;
35990;SDS011;22064;42.672;23.282;2022-08-21T00:11:59;31.88;;;12.52;;
35990;SDS011;22064;42.672;23.282;2022-08-21T00:14:25;33.33;;;13.90;;
35990;SDS011;22064;42.672;23.282;2022-08-21T00:16:50;29.52;;;13.07;;
35990;SDS011;22064;42.672;23.282;2022-08-21T00:19:16;27.83;;;12.55;;
35990;SDS011;22064;42.672;23.282;2022-08-21T00:21:41;33.00;;;14.05;;
35990;SDS011;22064;42.672;23.282;2022-08-21T00:24:07;31.75;;;13.23;;
35990;SDS011;22064;42.672;23.282;2022-08-21T00:26:33;30.80;;;14.10;;
35990;SDS011;22064;42.672;23.282;2022-08-21T00:28:59;30.15;;;14.35;;
35990;SDS011;22064;42.672;23.282;2022-08-21T00:31:25;29.02;;;13.63;;
35990;SDS011;22064;42.672;23.282;2022-08-21T00:33:50;32.00;;;13.57;;
35990;SDS011;22064;42.672;23.282;2022-08-21T00:36:16;25.42;;;12.80;;
35990;SDS011;22064;42.672;23.282;2022-08-21T00:38:42;26.80;;;12.63;;
35990;SDS011;22064;42.672;23.282;2022-08-21T00:41:09;25.90;;;11.50;;
35990;SDS011;22064;42.672;23.282;2022-08-21T00:43:36;27.40;;;12.38;;
35990;SDS011;22064;42.672;23.282;2022-08-21T00:46:04;27.00;;;11.90;;
35990;SDS011;22064;42.672;23.282;2022-08-21T00:48:30;26.40;;;11.07;;
35990;SDS011;22064;42.672;23.282;2022-08-21T00:50:58;26.98;;;11.88;;
35990;SDS011;22064;42.672;23.282;2022-08-21T00:53:27;27.60;;;11.40;;
35990;SDS011;22064;42.672;23.282;2022-08-21T00:55:54;28.80;;;13.27;;
35990;SDS011;22064;42.672;23.282;2022-08-21T00:58:21;29.83;;;12.52;;
35990;SDS011;22064;42.672;23.282;2022-08-21T01:00:48;26.10;;;11.38;;
35990;SDS011;22064;42.672;23.282;2022-08-21T01:03:16;25.67;;;10.98;;
35990;SDS011;22064;42.672;23.282;2022-08-21T01:05:43;25.02;;;10.98;;
35990;SDS011;22064;42.672;23.282;2022-08-21T01:08:10;27.92;;;12.02;;
35990;SDS011;22064;42.672;23.282;2022-08-21T01:10:38;27.20;;;12.02;;
35990;SDS011;22064;42.672;23.282;2022-08-21T01:13:07;25.98;;;11.55;;
35990;SDS011;22064;42.672;23.282;2022-08-21T01:15:36;26.27;;;11.75;;
35990;SDS011;22064;42.672;23.282;2022-08-21T01:18:05;29.30;;;12.25;;
35990;SDS011;22064;42.672;23.282;2022-08-21T01:20:33;27.73;;;11.98;;
35990;SDS011;22064;42.672;23.282;2022-08-21T01:23:01;27.95;;;11.55;;
35990;SDS011;22064;42.672;23.282;2022-08-21T01:25:28;27.67;;;12.73;;
35990;SDS011;22064;42.672;23.282;2022-08-21T01:27:54;27.35;;;11.70;;
35990;SDS011;22064;42.672;23.282;2022-08-21T01:30:22;25.13;;;12.02;;
35990;SDS011;22064;42.672;23.282;2022-08-21T01:32:51;23.05;;;10.48;;
35990;SDS011;22064;42.672;23.282;2022-08-21T01:35:19;27.88;;;12.07;;
35990;SDS011;22064;42.672;23.282;2022-08-21T01:37:46;26.58;;;11.02;;
35990;SDS011;22064;42.672;23.282;2022-08-21T01:40:14;24.08;;;10.95;;
35990;SDS011;22064;42.672;23.282;2022-08-21T01:42:42;23.63;;;10.43;;
35990;SDS011;22064;42.672;23.282;2022-08-21T01:45:09;24.67;;;11.32;;
35990;SDS011;22064;42.672;23.282;2022-08-21T01:47:35;23.73;;;10.80;;
35990;SDS011;22064;42.672;23.282;2022-08-21T01:50:03;27.17;;;9.73;;
35990;SDS011;22064;42.672;23.282;2022-08-21T01:52:33;21.60;;;9.35;;
35990;SDS011;22064;42.672;23.282;2022-08-21T01:54:58;21.10;;;7.95;;
35990;SDS011;22064;42.672;23.282;2022-08-21T01:57:24;19.17;;;7.20;;
35990;SDS011;22064;42.672;23.282;2022-08-21T01:59:49;15.40;;;7.07;;
35990;SDS011;22064;42.672;23.282;2022-08-21T02:02:15;17.73;;;7.88;;
35990;SDS011;22064;42.672;23.282;2022-08-21T02:04:41;16.60;;;8.23;;
35990;SDS011;22064;42.672;23.282;2022-08-21T02:07:06;18.27;;;8.98;;
35990;SDS011;22064;42.672;23.282;2022-08-21T02:09:32;19.02;;;8.73;;
35990;SDS011;22064;42.672;23.282;2022-08-21T02:11:58;23.67;;;11.23;;
35990;SDS011;22064;42.672;23.282;2022-08-21T02:14:24;27.67;;;11.20;;
35990;SDS011;22064;42.672;23.282;2022-08-21T02:16:50;29.88;;;12.98;;
35990;SDS011;22064;42.672;23.282;2022-08-21T02:19:16;30.13;;;12.77;;
35990;SDS011;22064;42.672;23.282;2022-08-21T02:21:41;29.00;;;12.80;;
35990;SDS011;22064;42.672;23.282;2022-08-21T02:24:07;28.17;;;13.98;;
35990;SDS011;22064;42.672;23.282;2022-08-21T02:26:33;36.28;;;14.60;;
35990;SDS011;22064;42.672;23.282;2022-08-21T02:28:59;31.42;;;13.65;;
35990;SDS011;22064;42.672;23.282;2022-08-21T02:31:25;32.40;;;15.70;;
35990;SDS011;22064;42.672;23.282;2022-08-21T02:33:51;38.65;;;15.65;;
35990;SDS011;22064;42.672;23.282;2022-08-21T02:36:16;37.67;;;16.67;;
35990;SDS011;22064;42.672;23.282;2022-08-21T02:38:42;42.05;;;17.15;;
35990;SDS011;22064;42.672;23.282;2022-08-21T02:41:12;35.35;;;16.40;;
35990;SDS011;22064;42.672;23.282;2022-08-21T02:43:41;33.72;;;15.68;;
35990;SDS011;22064;42.672;23.282;2022-08-21T02:46:07;35.47;;;15.82;;
35990;SDS011;22064;42.672;23.282;2022-08-21T02:48:35;45.78;;;18.65;;
35990;SDS011;22064;42.672;23.282;2022-08-21T02:51:12;46.58;;;17.98;;
35990;SDS011;22064;42.672;23.282;2022-08-21T02:53:43;44.03;;;17.92;;
35990;SDS011;22064;42.672;23.282;2022-08-21T02:56:11;39.67;;;17.17;;
35990;SDS011;22064;42.672;23.282;2022-08-21T02:58:40;37.00;;;16.43;;
35990;SDS011;22064;42.672;23.282;2022-08-21T03:01:08;36.72;;;16.42;;
35990;SDS011;22064;42.672;23.282;2022-08-21T03:03:36;33.38;;;14.50;;
35990;SDS011;22064;42.672;23.282;2022-08-21T03:06:04;36.95;;;15.43;;
35990;SDS011;22064;42.672;23.282;2022-08-21T03:08:30;35.75;;;15.45;;
35990;SDS011;22064;42.672;23.282;2022-08-21T03:10:56;33.55;;;14.65;;
35990;SDS011;22064;42.672;23.282;2022-08-21T03:13:22;33.80;;;14.63;;
35990;SDS011;22064;42.672;23.282;2022-08-21T03:15:49;37.58;;;14.93;;
35990;SDS011;22064;42.672;23.282;2022-08-21T03:18:14;37.60;;;15.25;;
35990;SDS011;22064;42.672;23.282;2022-08-21T03:20:41;33.78;;;15.52;;
35990;SDS011;22064;42.672;23.282;2022-08-21T03:23:08;34.70;;;13.27;;
35990;SDS011;22064;42.672;23.282;2022-08-21T03:25:34;26.85;;;12.32;;
35990;SDS011;22064;42.672;23.282;2022-08-21T03:28:01;33.58;;;13.40;;
35990;SDS011;22064;42.672;23.282;2022-08-21T03:30:28;26.98;;;11.77;;
35990;SDS011;22064;42.672;23.282;2022-08-21T03:32:56;29.27;;;12.88;;
35990;SDS011;22064;42.672;23.282;2022-08-21T03:35:26;25.35;;;11.93;;
35990;SDS011;22064;42.672;23.282;2022-08-21T03:37:52;27.60;;;12.73;;
35990;SDS011;22064;42.672;23.282;2022-08-21T03:40:19;29.58;;;13.05;;
35990;SDS011;22064;42.672;23.282;2022-08-21T03:42:47;28.92;;;13.00;;
35990;SDS011;22064;42.672;23.282;2022-08-21T03:45:13;32.40;;;14.07;;
35990;SDS011;22064;42.672;23.282;2022-08-21T03:50:37;45.97;;;17.80;;
35990;SDS011;22064;42.672;23.282;2022-08-21T03:53:05;45.58;;;19.65;;
35990;SDS011;22064;42.672;23.282;2022-08-21T03:55:31;50.85;;;19.25;;
35990;SDS011;22064;42.672;23.282;2022-08-21T03:57:57;50.67;;;20.70;;
35990;SDS011;22064;42.672;23.282;2022-08-21T04:00:23;48.65;;;19.92;;
35990;SDS011;22064;42.672;23.282;2022-08-21T04:02:49;46.03;;;18.75;;
35990;SDS011;22064;42.672;23.282;2022-08-21T04:05:15;60.10;;;22.27;;
35990;SDS011;22064;42.672;23.282;2022-08-21T04:07:56;75.28;;;26.63;;
35990;SDS011;22064;42.672;23.282;2022-08-21T04:10:23;66.75;;;23.63;;
35990;SDS011;22064;42.672;23.282;2022-08-21T04:12:50;63.92;;;25.30;;
35990;SDS011;22064;42.672;23.282;2022-08-21T04:15:17;60.10;;;23.85;;
35990;SDS011;22064;42.672;23.282;2022-08-21T04:17:42;62.33;;;24.17;;
35990;SDS011;22064;42.672;23.282;2022-08-21T04:20:08;57.63;;;20.90;;
35990;SDS011;22064;42.672;23.282;2022-08-21T04:22:34;53.47;;;20.50;;
35990;SDS011;22064;42.672;23.282;2022-08-21T04:24:59;52.90;;;20.77;;
35990;SDS011;22064;42.672;23.282;2022-08-21T04:27:25;47.50;;;19.55;;
35990;SDS011;22064;42.672;23.282;2022-08-21T04:29:51;40.55;;;16.50;;
35990;SDS011;22064;42.672;23.282;2022-08-21T04:32:25;40.55;;;16.55;;
35990;SDS011;22064;42.672;23.282;2022-08-21T04:34:57;36.33;;;15.60;;
35990;SDS011;22064;42.672;23.282;2022-08-21T04:37:29;31.25;;;12.90;;
35990;SDS011;22064;42.672;23.282;2022-08-21T04:39:55;30.50;;;12.20;;
35990;SDS011;22064;42.672;23.282;2022-08-21T04:42:24;23.83;;;10.45;;
35990;SDS011;22064;42.672;23.282;2022-08-21T04:44:50;27.67;;;10.30;;
35990;SDS011;22064;42.672;23.282;2022-08-21T04:47:16;24.38;;;9.88;;
35990;SDS011;22064;42.672;23.282;2022-08-21T04:49:42;22.70;;;10.10;;
35990;SDS011;22064;42.672;23.282;2022-08-21T04:52:08;23.60;;;9.82;;
35990;SDS011;22064;42.672;23.282;2022-08-21T04:54:36;21.27;;;9.60;;
35990;SDS011;22064;42.672;23.282;2022-08-21T04:57:04;22.40;;;10.35;;
35990;SDS011;22064;42.672;23.282;2022-08-21T04:59:40;23.80;;;10.45;;
35990;SDS011;22064;42.672;23.282;2022-08-21T05:02:11;24.25;;;10.07;;
35990;SDS011;22064;42.672;23.282;2022-08-21T05:04:40;22.35;;;10.35;;
35990;SDS011;22064;42.672;23.282;2022-08-21T05:07:12;20.73;;;10.05;;
35990;SDS011;22064;42.672;23.282;2022-08-21T05:09:42;22.98;;;10.10;;
35990;SDS011;22064;42.672;23.282;2022-08-21T05:12:08;19.30;;;9.20;;
35990;SDS011;22064;42.672;23.282;2022-08-21T05:14:34;22.50;;;9.82;;
35990;SDS011;22064;42.672;23.282;2022-08-21T05:17:00;17.85;;;8.85;;
35990;SDS011;22064;42.672;23.282;2022-08-21T05:19:26;21.83;;;9.38;;
35990;SDS011;22064;42.672;23.282;2022-08-21T05:21:52;21.17;;;10.05;;
35990;SDS011;22064;42.672;23.282;2022-08-21T05:24:18;19.95;;;9.77;;
35990;SDS011;22064;42.672;23.282;2022-08-21T05:26:44;19.10;;;9.55;;
35990;SDS011;22064;42.672;23.282;2022-08-21T05:29:11;19.17;;;9.60;;
35990;SDS011;22064;42.672;23.282;2022-08-21T05:31:37;19.90;;;9.60;;
35990;SDS011;22064;42.672;23.282;2022-08-21T05:34:03;23.52;;;9.50;;
35990;SDS011;22064;42.672;23.282;2022-08-21T05:36:31;22.58;;;9.30;;
35990;SDS011;22064;42.672;23.282;2022-08-21T05:38:57;21.92;;;11.30;;
35990;SDS011;22064;42.672;23.282;2022-08-21T05:41:22;20.30;;;10.48;;
35990;SDS011;22064;42.672;23.282;2022-08-21T05:43:48;24.67;;;10.43;;
35990;SDS011;22064;42.672;23.282;2022-08-21T05:46:14;19.77;;;10.02;;
35990;SDS011;22064;42.672;23.282;2022-08-21T05:48:40;21.13;;;9.27;;
35990;SDS011;22064;42.672;23.282;2022-08-21T05:51:08;18.13;;;9.55;;
35990;SDS011;22064;42.672;23.282;2022-08-21T05:53:36;19.97;;;9.27;;
35990;SDS011;22064;42.672;23.282;2022-08-21T05:56:02;18.52;;;9.07;;
35990;SDS011;22064;42.672;23.282;2022-08-21T05:58:29;20.85;;;9.60;;
35990;SDS011;22064;42.672;23.282;2022-08-21T06:00:55;21.75;;;10.73;;
35990;SDS011;22064;42.672;23.282;2022-08-21T06:03:24;25.00;;;12.27;;
35990;SDS011;22064;42.672;23.282;2022-08-21T06:05:52;27.73;;;13.50;;
35990;SDS011;22064;42.672;23.282;2022-08-21T06:08:19;23.73;;;11.88;;
35990;SDS011;22064;42.672;23.282;2022-08-21T06:10:46;22.58;;;11.85;;
35990;SDS011;22064;42.672;23.282;2022-08-21T06:13:14;24.05;;;11.20;;
35990;SDS011;22064;42.672;23.282;2022-08-21T06:15:41;21.27;;;10.32;;
35990;SDS011;22064;42.672;23.282;2022-08-21T06:18:07;22.15;;;11.05;;
35990;SDS011;22064;42.672;23.282;2022-08-21T06:20:34;27.25;;;11.30;;
35990;SDS011;22064;42.672;23.282;2022-08-21T06:23:00;22.92;;;10.25;;
35990;SDS011;22064;42.672;23.282;2022-08-21T06:25:26;25.55;;;11.30;;
35990;SDS011;22064;42.672;23.282;2022-08-21T06:27:52;23.15;;;10.55;;
35990;SDS011;22064;42.672;23.282;2022-08-21T06:30:18;22.48;;;10.82;;
35990;SDS011;22064;42.672;23.282;2022-08-21T06:32:44;23.48;;;11.07;;
35990;SDS011;22064;42.672;23.282;2022-08-21T06:35:10;21.17;;;10.30;;
35990;SDS011;22064;42.672;23.282;2022-08-21T06:37:36;20.55;;;10.20;;
35990;SDS011;22064;42.672;23.282;2022-08-21T06:40:05;21.02;;;10.63;;
35990;SDS011;22064;42.672;23.282;2022-08-21T06:44:58;22.13;;;11.85;;
35990;SDS011;22064;42.672;23.282;2022-08-21T06:47:23;23.90;;;12.02;;
35990;SDS011;22064;42.672;23.282;2022-08-21T06:49:49;25.95;;;12.98;;
35990;SDS011;22064;42.672;23.282;2022-08-21T06:52:14;24.17;;;12.52;;
35990;SDS011;22064;42.672;23.282;2022-08-21T06:54:40;26.65;;;13.55;;
35990;SDS011;22064;42.672;23.282;2022-08-21T06:57:06;27.98;;;14.23;;
35990;SDS011;22064;42.672;23.282;2022-08-21T06:59:32;28.13;;;14.18;;
35990;SDS011;22064;42.672;23.282;2022-08-21T07:01:58;24.52;;;12.40;;
35990;SDS011;22064;42.672;23.282;2022-08-21T07:04:24;22.52;;;12.45;;
35990;SDS011;22064;42.672;23.282;2022-08-21T07:06:50;24.85;;;11.60;;
35990;SDS011;22064;42.672;23.282;2022-08-21T07:09:16;20.77;;;11.88;;
35990;SDS011;22064;42.672;23.282;2022-08-21T07:11:41;25.83;;;13.02;;
35990;SDS011;22064;42.672;23.282;2022-08-21T07:14:08;26.15;;;12.90;;
35990;SDS011;22064;42.672;23.282;2022-08-21T07:16:33;23.20;;;12.00;;
35990;SDS011;22064;42.672;23.282;2022-08-21T07:18:59;27.92;;;13.38;;
35990;SDS011;22064;42.672;23.282;2022-08-21T07:21:24;24.17;;;10.82;;
35990;SDS011;22064;42.672;23.282;2022-08-21T07:23:50;22.08;;;10.43;;
35990;SDS011;22064;42.672;23.282;2022-08-21T07:26:18;20.48;;;9.60;;
35990;SDS011;22064;42.672;23.282;2022-08-21T07:28:46;18.53;;;9.03;;
35990;SDS011;22064;42.672;23.282;2022-08-21T07:31:14;17.20;;;9.63;;
35990;SDS011;22064;42.672;23.282;2022-08-21T07:33:42;23.98;;;9.75;;
35990;SDS011;22064;42.672;23.282;2022-08-21T07:36:08;22.05;;;10.15;;
35990;SDS011;22064;42.672;23.282;2022-08-21T07:38:35;22.95;;;11.27;;
35990;SDS011;22064;42.672;23.282;2022-08-21T07:41:01;21.05;;;10.50;;
35990;SDS011;22064;42.672;23.282;2022-08-21T07:43:28;23.90;;;10.90;;
35990;SDS011;22064;42.672;23.282;2022-08-21T07:45:54;24.60;;;11.63;;
35990;SDS011;22064;42.672;23.282;2022-08-21T07:48:20;23.35;;;10.88;;
35990;SDS011;22064;42.672;23.282;2022-08-21T07:50:46;22.98;;;10.80;;
35990;SDS011;22064;42.672;23.282;2022-08-21T07:53:13;19.23;;;10.15;;
35990;SDS011;22064;42.672;23.282;2022-08-21T07:55:39;20.70;;;10.27;;
35990;SDS011;22064;42.672;23.282;2022-08-21T07:58:05;24.05;;;11.30;;
35990;SDS011;22064;42.672;23.282;2022-08-21T08:00:31;24.80;;;10.82;;
35990;SDS011;22064;42.672;23.282;2022-08-21T08:02:58;19.20;;;11.00;;
35990;SDS011;22064;42.672;23.282;2022-08-21T08:05:25;24.80;;;11.02;;
35990;SDS011;22064;42.672;23.282;2022-08-21T08:07:52;21.45;;;9.85;;
35990;SDS011;22064;42.672;23.282;2022-08-21T08:10:18;17.38;;;9.30;;
35990;SDS011;22064;42.672;23.282;2022-08-21T08:12:44;16.52;;;8.18;;
35990;SDS011;22064;42.672;23.282;2022-08-21T08:15:12;22.88;;;9.77;;
35990;SDS011;22064;42.672;23.282;2022-08-21T08:17:40;18.17;;;8.80;;
35990;SDS011;22064;42.672;23.282;2022-08-21T08:20:06;19.25;;;8.98;;
35990;SDS011;22064;42.672;23.282;2022-08-21T08:22:34;18.30;;;8.70;;
35990;SDS011;22064;42.672;23.282;2022-08-21T08:25:02;19.53;;;8.67;;
35990;SDS011;22064;42.672;23.282;2022-08-21T08:27:30;17.13;;;8.88;;
35990;SDS011;22064;42.672;23.282;2022-08-21T08:29:55;20.67;;;9.73;;
35990;SDS011;22064;42.672;23.282;2022-08-21T08:32:21;17.83;;;8.95;;
35990;SDS011;22064;42.672;23.282;2022-08-21T08:34:48;17.80;;;9.38;;
35990;SDS011;22064;42.672;23.282;2022-08-21T08:37:14;20.00;;;9.45;;
35990;SDS011;22064;42.672;23.282;2022-08-21T08:39:40;24.40;;;9.35;;
35990;SDS011;22064;42.672;23.282;2022-08-21T08:42:11;23.23;;;10.48;;
35990;SDS011;22064;42.672;23.282;2022-08-21T08:44:42;19.60;;;9.65;;
35990;SDS011;22064;42.672;23.282;2022-08-21T08:47:11;19.55;;;9.13;;
35990;SDS011;22064;42.672;23.282;2022-08-21T08:52:20;20.77;;;9.20;;
35990;SDS011;22064;42.672;23.282;2022-08-21T08:54:59;21.13;;;9.85;;
35990;SDS011;22064;42.672;23.282;2022-08-21T08:57:26;16.52;;;7.72;;
35990;SDS011;22064;42.672;23.282;2022-08-21T08:59:53;19.23;;;7.35;;
35990;SDS011;22064;42.672;23.282;2022-08-21T09:02:22;17.40;;;7.82;;
35990;SDS011;22064;42.672;23.282;2022-08-21T09:04:52;13.77;;;7.50;;
35990;SDS011;22064;42.672;23.282;2022-08-21T09:07:30;17.48;;;7.13;;
35990;SDS011;22064;42.672;23.282;2022-08-21T09:19:03;14.73;;;6.45;;
35990;SDS011;22064;42.672;23.282;2022-08-21T09:24:49;17.35;;;6.43;;
35990;SDS011;22064;42.672;23.282;2022-08-21T09:27:27;14.75;;;6.20;;
35990;SDS011;22064;42.672;23.282;2022-08-21T09:29:55;11.40;;;5.88;;
35990;SDS011;22064;42.672;23.282;2022-08-21T09:32:24;13.00;;;6.13;;
35990;SDS011;22064;42.672;23.282;2022-08-21T09:37:20;15.15;;;6.55;;
35990;SDS011;22064;42.672;23.282;2022-08-21T09:39:45;16.65;;;7.03;;
35990;SDS011;22064;42.672;23.282;2022-08-21T09:42:11;16.35;;;7.15;;
35990;SDS011;22064;42.672;23.282;2022-08-21T09:44:48;14.02;;;6.60;;
35990;SDS011;22064;42.672;23.282;2022-08-21T09:47:18;12.70;;;6.88;;
35990;SDS011;22064;42.672;23.282;2022-08-21T09:49:43;15.13;;;6.30;;
35990;SDS011;22064;42.672;23.282;2022-08-21T09:52:17;14.23;;;6.32;;
35990;SDS011;22064;42.672;23.282;2022-08-21T09:54:48;11.85;;;6.07;;
35990;SDS011;22064;42.672;23.282;2022-08-21T09:57:28;10.02;;;5.93;;
35990;SDS011;22064;42.672;23.282;2022-08-21T10:02:50;13.18;;;5.50;;
35990;SDS011;22064;42.672;23.282;2022-08-21T10:07:44;11.98;;;5.55;;
35990;SDS011;22064;42.672;23.282;2022-08-21T10:10:17;9.55;;;5.13;;
35990;SDS011;22064;42.672;23.282;2022-08-21T10:13:29;12.68;;;5.75;;
35990;SDS011;22064;42.672;23.282;2022-08-21T10:16:13;12.18;;;5.78;;
35990;SDS011;22064;42.672;23.282;2022-08-21T10:32:03;10.45;;;5.30;;
35990;SDS011;22064;42.672;23.282;2022-08-21T10:44:37;11.07;;;5.50;;
35990;SDS011;22064;42.672;23.282;2022-08-21T10:53:21;13.98;;;6.20;;
35990;SDS011;22064;42.672;23.282;2022-08-21T10:55:39;11.13;;;5.13;;
35990;SDS011;22064;42.672;23.282;2022-08-21T11:00:58;13.48;;;5.82;;
35990;SDS011;22064;42.672;23.282;2022-08-21T11:03:34;12.30;;;6.15;;
35990;SDS011;22064;42.672;23.282;2022-08-21T11:06:06;10.57;;;5.68;;
35990;SDS011;22064;42.672;23.282;2022-08-21T11:08:51;10.30;;;5.85;;
35990;SDS011;22064;42.672;23.282;2022-08-21T11:11:35;15.98;;;6.43;;
35990;SDS011;22064;42.672;23.282;2022-08-21T11:29:40;12.32;;;5.82;;
35990;SDS011;22064;42.672;23.282;2022-08-21T11:43:35;9.23;;;5.07;;
35990;SDS011;22064;42.672;23.282;2022-08-21T11:46:20;8.40;;;4.50;;
35990;SDS011;22064;42.672;23.282;2022-08-21T11:51:31;10.85;;;6.07;;
35990;SDS011;22064;42.672;23.282;2022-08-21T11:54:02;9.25;;;5.20;;
35990;SDS011;22064;42.672;23.282;2022-08-21T11:59:09;11.82;;;5.35;;
35990;SDS011;22064;42.672;23.282;2022-08-21T12:01:42;8.90;;;4.90;;
35990;SDS011;22064;42.672;23.282;2022-08-21T12:04:17;11.60;;;5.53;;
35990;SDS011;22064;42.672;23.282;2022-08-21T12:06:48;11.30;;;5.50;;
35990;SDS011;22064;42.672;23.282;2022-08-21T12:11:50;8.07;;;5.07;;
35990;SDS011;22064;42.672;23.282;2022-08-21T12:14:35;11.63;;;5.30;;
35990;SDS011;22064;42.672;23.282;2022-08-21T12:17:07;12.65;;;5.63;;
35990;SDS011;22064;42.672;23.282;2022-08-21T12:19:34;13.60;;;5.95;;
35990;SDS011;22064;42.672;23.282;2022-08-21T12:29:48;10.65;;;5.22;;
35990;SDS011;22064;42.672;23.282;2022-08-21T12:34:46;12.40;;;4.93;;
35990;SDS011;22064;42.672;23.282;2022-08-21T12:43:05;15.57;;;4.80;;
35990;SDS011;22064;42.672;23.282;2022-08-21T12:45:40;9.75;;;5.32;;
35990;SDS011;22064;42.672;23.282;2022-08-21T12:50:40;12.68;;;5.43;;
35990;SDS011;22064;42.672;23.282;2022-08-21T12:56:03;11.02;;;5.60;;
35990;SDS011;22064;42.672;23.282;2022-08-21T12:58:34;10.93;;;5.18;;
35990;SDS011;22064;42.672;23.282;2022-08-21T13:01:03;11.98;;;5.30;;
35990;SDS011;22064;42.672;23.282;2022-08-21T13:03:34;11.40;;;5.80;;
35990;SDS011;22064;42.672;23.282;2022-08-21T13:06:03;11.43;;;5.43;;
35990;SDS011;22064;42.672;23.282;2022-08-21T13:08:30;11.80;;;5.80;;
35990;SDS011;22064;42.672;23.282;2022-08-21T13:10:59;11.75;;;4.90;;
35990;SDS011;22064;42.672;23.282;2022-08-21T13:13:28;12.73;;;5.72;;
35990;SDS011;22064;42.672;23.282;2022-08-21T13:16:02;9.45;;;5.35;;
35990;SDS011;22064;42.672;23.282;2022-08-21T13:18:31;11.65;;;5.07;;
35990;SDS011;22064;42.672;23.282;2022-08-21T13:21:11;9.65;;;5.32;;
35990;SDS011;22064;42.672;23.282;2022-08-21T13:23:39;10.52;;;5.15;;
35990;SDS011;22064;42.672;23.282;2022-08-21T13:26:12;11.48;;;5.35;;
35990;SDS011;22064;42.672;23.282;2022-08-21T13:28:43;12.23;;;5.63;;
35990;SDS011;22064;42.672;23.282;2022-08-21T13:31:12;11.77;;;5.13;;
35990;SDS011;22064;42.672;23.282;2022-08-21T13:33:43;10.15;;;5.15;;
35990;SDS011;22064;42.672;23.282;2022-08-21T13:36:10;9.52;;;5.93;;
35990;SDS011;22064;42.672;23.282;2022-08-21T13:38:42;10.48;;;5.18;;
35990;SDS011;22064;42.672;23.282;2022-08-21T13:41:19;9.85;;;4.95;;
35990;SDS011;22064;42.672;23.282;2022-08-21T13:44:00;10.40;;;4.85;;
35990;SDS011;22064;42.672;23.282;2022-08-21T13:46:29;14.05;;;5.65;;
35990;SDS011;22064;42.672;23.282;2022-08-21T13:49:01;12.18;;;5.30;;
35990;SDS011;22064;42.672;23.282;2022-08-21T13:51:29;14.07;;;5.78;;
35990;SDS011;22064;42.672;23.282;2022-08-21T13:53:56;12.45;;;5.88;;
35990;SDS011;22064;42.672;23.282;2022-08-21T13:58:59;13.10;;;5.03;;
35990;SDS011;22064;42.672;23.282;2022-08-21T14:01:28;11.65;;;5.50;;
35990;SDS011;22064;42.672;23.282;2022-08-21T14:04:22;15.10;;;5.70;;
35990;SDS011;22064;42.672;23.282;2022-08-21T14:06:50;13.07;;;5.47;;
35990;SDS011;22064;42.672;23.282;2022-08-21T14:12:17;12.45;;;5.40;;
35990;SDS011;22064;42.672;23.282;2022-08-21T14:14:49;10.07;;;5.43;;
35990;SDS011;22064;42.672;23.282;2022-08-21T14:17:25;10.45;;;5.43;;
35990;SDS011;22064;42.672;23.282;2022-08-21T14:20:00;11.02;;;5.55;;
35990;SDS011;22064;42.672;23.282;2022-08-21T14:25:03;18.73;;;6.70;;
35990;SDS011;22064;42.672;23.282;2022-08-21T14:27:31;16.27;;;6.97;;
35990;SDS011;22064;42.672;23.282;2022-08-21T14:32:59;17.48;;;7.03;;
35990;SDS011;22064;42.672;23.282;2022-08-21T14:35:25;13.93;;;7.20;;
35990;SDS011;22064;42.672;23.282;2022-08-21T14:37:51;14.20;;;7.07;;
35990;SDS011;22064;42.672;23.282;2022-08-21T14:40:19;16.08;;;6.55;;
35990;SDS011;22064;42.672;23.282;2022-08-21T14:42:47;13.60;;;6.65;;
35990;SDS011;22064;42.672;23.282;2022-08-21T14:45:18;14.52;;;7.28;;
35990;SDS011;22064;42.672;23.282;2022-08-21T14:47:52;14.23;;;6.75;;
35990;SDS011;22064;42.672;23.282;2022-08-21T14:50:17;14.75;;;7.32;;
35990;SDS011;22064;42.672;23.282;2022-08-21T14:52:43;13.75;;;6.72;;
35990;SDS011;22064;42.672;23.282;2022-08-21T14:55:11;16.98;;;6.95;;
35990;SDS011;22064;42.672;23.282;2022-08-21T14:57:42;15.73;;;7.10;;
35990;SDS011;22064;42.672;23.282;2022-08-21T15:00:16;14.63;;;6.72;;
35990;SDS011;22064;42.672;23.282;2022-08-21T15:02:43;14.60;;;6.82;;
35990;SDS011;22064;42.672;23.282;2022-08-21T15:05:09;12.73;;;7.32;;
35990;SDS011;22064;42.672;23.282;2022-08-21T15:07:35;13.85;;;6.80;;
35990;SDS011;22064;42.672;23.282;2022-08-21T15:10:01;12.90;;;6.85;;
35990;SDS011;22064;42.672;23.282;2022-08-21T15:12:27;14.32;;;6.85;;
35990;SDS011;22064;42.672;23.282;2022-08-21T15:14:52;15.60;;;5.95;;
35990;SDS011;22064;42.672;23.282;2022-08-21T15:17:18;16.25;;;6.55;;
35990;SDS011;22064;42.672;23.282;2022-08-21T15:19:44;11.20;;;6.45;;
35990;SDS011;22064;42.672;23.282;2022-08-21T15:22:10;11.40;;;6.13;;
35990;SDS011;22064;42.672;23.282;2022-08-21T15:24:36;14.02;;;7.10;;
35990;SDS011;22064;42.672;23.282;2022-08-21T15:27:01;13.55;;;6.28;;
35990;SDS011;22064;42.672;23.282;2022-08-21T15:29:29;14.27;;;7.07;;
35990;SDS011;22064;42.672;23.282;2022-08-21T15:31:56;13.63;;;7.13;;
35990;SDS011;22064;42.672;23.282;2022-08-21T15:34:25;11.70;;;5.97;;
35990;SDS011;22064;42.672;23.282;2022-08-21T15:36:53;15.52;;;5.78;;
35990;SDS011;22064;42.672;23.282;2022-08-21T15:39:20;14.27;;;6.38;;
35990;SDS011;22064;42.672;23.282;2022-08-21T15:41:45;12.07;;;6.60;;
35990;SDS011;22064;42.672;23.282;2022-08-21T15:44:12;15.27;;;6.55;;
35990;SDS011;22064;42.672;23.282;2022-08-21T15:46:39;14.18;;;6.70;;
35990;SDS011;22064;42.672;23.282;2022-08-21T15:49:05;17.33;;;6.70;;
35990;SDS011;22064;42.672;23.282;2022-08-21T15:51:32;12.25;;;6.75;;
35990;SDS011;22064;42.672;23.282;2022-08-21T15:53:57;14.65;;;6.68;;
35990;SDS011;22064;42.672;23.282;2022-08-21T15:56:24;12.82;;;6.60;;
35990;SDS011;22064;42.672;23.282;2022-08-21T15:58:53;11.00;;;6.10;;
35990;SDS011;22064;42.672;23.282;2022-08-21T16:01:24;11.38;;;6.03;;
35990;SDS011;22064;42.672;23.282;2022-08-21T16:03:50;14.00;;;6.03;;
35990;SDS011;22064;42.672;23.282;2022-08-21T16:06:19;11.70;;;5.95;;
35990;SDS011;22064;42.672;23.282;2022-08-21T16:08:44;18.15;;;6.88;;
35990;SDS011;22064;42.672;23.282;2022-08-21T16:11:11;13.77;;;6.55;;
35990;SDS011;22064;42.672;23.282;2022-08-21T16:13:40;11.43;;;6.78;;
35990;SDS011;22064;42.672;23.282;2022-08-21T16:16:12;15.30;;;6.97;;
35990;SDS011;22064;42.672;23.282;2022-08-21T16:18:43;11.38;;;6.65;;
35990;SDS011;22064;42.672;23.282;2022-08-21T16:21:09;15.10;;;7.22;;
35990;SDS011;22064;42.672;23.282;2022-08-21T16:23:35;15.02;;;7.78;;
35990;SDS011;22064;42.672;23.282;2022-08-21T16:26:03;12.65;;;7.00;;
35990;SDS011;22064;42.672;23.282;2022-08-21T16:28:29;13.35;;;7.05;;
35990;SDS011;22064;42.672;23.282;2022-08-21T16:30:58;12.02;;;6.75;;